sensor_id;sensor_type;location;lat;lon;timestamp;P1;durP1;ratioP1;P2;durP2;ratioP2
17369;SDS011;8802;52.402;4.920;2022-10-16T00:01:50;2.40;;;0.82;;
17369;SDS011;8802;52.402;4.920;2022-10-16T00:04:16;5.55;;;0.80;;
17369;SDS011;8802;52.402;4.920;2022-10-16T00:06:43;1.98;;;0.63;;
17369;SDS011;8802;52.402;4.920;2022-10-16T00:09:10;3.13;;;1.10;;
17369;SDS011;8802;52.402;4.920;2022-10-16T00:11:38;2.00;;;0.82;;
17369;SDS011;8802;52.402;4.920;2022-10-16T00:14:06;2.17;;;0.85;;
17369;SDS011;8802;52.402;4.920;2022-10-16T00:16:35;2.22;;;1.00;;
17369;SDS011;8802;52.402;4.920;2022-10-16T00:19:03;3.63;;;1.20;;
17369;SDS011;8802;52.402;4.920;2022-10-16T00:21:33;1.95;;;0.80;;
17369;SDS011;8802;52.402;4.920;2022-10-16T00:24:01;3.20;;;1.10;;
17369;SDS011;8802;52.402;4.920;2022-10-16T00:26:30;3.67;;;0.98;;
17369;SDS011;8802;52.402;4.920;2022-10-16T00:28:58;2.25;;;1.20;;
17369;SDS011;8802;52.402;4.920;2022-10-16T00:31:26;2.55;;;1.13;;
17369;SDS011;8802;52.402;4.920;2022-10-16T00:33:53;3.45;;;1.30;;
17369;SDS011;8802;52.402;4.920;2022-10-16T00:36:22;3.45;;;1.17;;
17369;SDS011;8802;52.402;4.920;2022-10-16T00:38:50;2.75;;;1.40;;
17369;SDS011;8802;52.402;4.920;2022-10-16T00:41:19;4.18;;;1.25;;
17369;SDS011;8802;52.402;4.920;2022-10-16T00:43:48;2.72;;;1.20;;
17369;SDS011;8802;52.402;4.920;2022-10-16T00:46:17;3.75;;;1.33;;
17369;SDS011;8802;52.402;4.920;2022-10-16T00:48:49;3.35;;;1.50;;
17369;SDS011;8802;52.402;4.920;2022-10-16T00:51:18;3.28;;;0.98;;
17369;SDS011;8802;52.402;4.920;2022-10-16T00:53:50;2.53;;;1.00;;
17369;SDS011;8802;52.402;4.920;2022-10-16T00:56:17;2.90;;;0.88;;
17369;SDS011;8802;52.402;4.920;2022-10-16T00:58:44;3.92;;;1.13;;
17369;SDS011;8802;52.402;4.920;2022-10-16T01:01:11;1.63;;;0.98;;
17369;SDS011;8802;52.402;4.920;2022-10-16T01:03:38;4.25;;;1.13;;
17369;SDS011;8802;52.402;4.920;2022-10-16T01:06:11;2.58;;;1.20;;
17369;SDS011;8802;52.402;4.920;2022-10-16T01:08:55;4.55;;;1.10;;
17369;SDS011;8802;52.402;4.920;2022-10-16T01:11:30;3.40;;;0.88;;
17369;SDS011;8802;52.402;4.920;2022-10-16T01:14:05;2.25;;;1.20;;
17369;SDS011;8802;52.402;4.920;2022-10-16T01:16:42;2.67;;;1.20;;
17369;SDS011;8802;52.402;4.920;2022-10-16T01:19:15;3.35;;;1.33;;
17369;SDS011;8802;52.402;4.920;2022-10-16T01:21:51;1.73;;;1.13;;
17369;SDS011;8802;52.402;4.920;2022-10-16T01:24:25;2.22;;;1.10;;
17369;SDS011;8802;52.402;4.920;2022-10-16T01:27:05;1.65;;;1.10;;
17369;SDS011;8802;52.402;4.920;2022-10-16T01:29:36;1.83;;;1.02;;
17369;SDS011;8802;52.402;4.920;2022-10-16T01:32:09;2.22;;;0.98;;
17369;SDS011;8802;52.402;4.920;2022-10-16T01:34:47;1.95;;;1.00;;
17369;SDS011;8802;52.402;4.920;2022-10-16T01:37:19;4.72;;;1.30;;
17369;SDS011;8802;52.402;4.920;2022-10-16T01:39:50;4.55;;;1.10;;
17369;SDS011;8802;52.402;4.920;2022-10-16T01:42:26;3.58;;;0.98;;
17369;SDS011;8802;52.402;4.920;2022-10-16T01:44:57;1.58;;;1.08;;
17369;SDS011;8802;52.402;4.920;2022-10-16T01:47:25;2.95;;;1.15;;
17369;SDS011;8802;52.402;4.920;2022-10-16T01:49:54;1.55;;;0.88;;
17369;SDS011;8802;52.402;4.920;2022-10-16T01:52:25;2.17;;;1.20;;
17369;SDS011;8802;52.402;4.920;2022-10-16T01:54:55;1.60;;;0.82;;
17369;SDS011;8802;52.402;4.920;2022-10-16T01:57:25;1.25;;;0.70;;
17369;SDS011;8802;52.402;4.920;2022-10-16T01:59:53;1.60;;;0.80;;
17369;SDS011;8802;52.402;4.920;2022-10-16T02:02:23;3.08;;;0.90;;
17369;SDS011;8802;52.402;4.920;2022-10-16T02:04:56;1.65;;;0.85;;
17369;SDS011;8802;52.402;4.920;2022-10-16T02:07:27;2.25;;;0.80;;
17369;SDS011;8802;52.402;4.920;2022-10-16T02:09:54;1.27;;;0.73;;
17369;SDS011;8802;52.402;4.920;2022-10-16T02:12:23;1.55;;;0.77;;
17369;SDS011;8802;52.402;4.920;2022-10-16T02:14:53;3.75;;;0.90;;
17369;SDS011;8802;52.402;4.920;2022-10-16T02:17:20;1.33;;;0.75;;
17369;SDS011;8802;52.402;4.920;2022-10-16T02:19:48;2.97;;;1.38;;
17369;SDS011;8802;52.402;4.920;2022-10-16T02:22:18;1.95;;;0.85;;
17369;SDS011;8802;52.402;4.920;2022-10-16T02:24:50;1.55;;;0.85;;
17369;SDS011;8802;52.402;4.920;2022-10-16T02:27:22;1.90;;;1.10;;
17369;SDS011;8802;52.402;4.920;2022-10-16T02:29:56;1.83;;;1.15;;
17369;SDS011;8802;52.402;4.920;2022-10-16T02:32:32;1.75;;;1.13;;
17369;SDS011;8802;52.402;4.920;2022-10-16T02:35:00;3.28;;;1.13;;
17369;SDS011;8802;52.402;4.920;2022-10-16T02:37:28;1.77;;;0.90;;
17369;SDS011;8802;52.402;4.920;2022-10-16T02:39:56;2.65;;;1.10;;
17369;SDS011;8802;52.402;4.920;2022-10-16T02:42:28;1.85;;;1.00;;
17369;SDS011;8802;52.402;4.920;2022-10-16T02:44:58;2.20;;;1.02;;
17369;SDS011;8802;52.402;4.920;2022-10-16T02:47:25;2.33;;;1.00;;
17369;SDS011;8802;52.402;4.920;2022-10-16T02:49:52;2.05;;;1.08;;
17369;SDS011;8802;52.402;4.920;2022-10-16T02:52:19;3.63;;;1.00;;
17369;SDS011;8802;52.402;4.920;2022-10-16T02:54:46;2.50;;;0.98;;
17369;SDS011;8802;52.402;4.920;2022-10-16T02:57:13;1.63;;;1.20;;
17369;SDS011;8802;52.402;4.920;2022-10-16T02:59:41;1.30;;;0.82;;
17369;SDS011;8802;52.402;4.920;2022-10-16T03:02:08;2.25;;;1.00;;
17369;SDS011;8802;52.402;4.920;2022-10-16T03:04:35;1.25;;;0.80;;
17369;SDS011;8802;52.402;4.920;2022-10-16T03:07:02;1.83;;;0.93;;
17369;SDS011;8802;52.402;4.920;2022-10-16T03:09:29;2.03;;;1.08;;
17369;SDS011;8802;52.402;4.920;2022-10-16T03:11:56;1.98;;;0.90;;
17369;SDS011;8802;52.402;4.920;2022-10-16T03:14:23;1.00;;;0.90;;
17369;SDS011;8802;52.402;4.920;2022-10-16T03:16:51;2.53;;;1.25;;
17369;SDS011;8802;52.402;4.920;2022-10-16T03:19:18;2.17;;;1.05;;
17369;SDS011;8802;52.402;4.920;2022-10-16T03:21:45;2.42;;;1.25;;
17369;SDS011;8802;52.402;4.920;2022-10-16T03:24:12;2.90;;;1.30;;
17369;SDS011;8802;52.402;4.920;2022-10-16T03:26:39;2.42;;;1.45;;
17369;SDS011;8802;52.402;4.920;2022-10-16T03:29:06;3.50;;;1.58;;
17369;SDS011;8802;52.402;4.920;2022-10-16T03:31:33;1.98;;;1.20;;
17369;SDS011;8802;52.402;4.920;2022-10-16T03:34:01;2.03;;;1.20;;
17369;SDS011;8802;52.402;4.920;2022-10-16T03:36:28;2.00;;;1.20;;
17369;SDS011;8802;52.402;4.920;2022-10-16T03:38:55;2.28;;;1.20;;
17369;SDS011;8802;52.402;4.920;2022-10-16T03:41:22;3.10;;;1.35;;
17369;SDS011;8802;52.402;4.920;2022-10-16T03:43:48;2.95;;;1.30;;
17369;SDS011;8802;52.402;4.920;2022-10-16T03:46:15;1.80;;;1.48;;
17369;SDS011;8802;52.402;4.920;2022-10-16T03:48:42;2.40;;;1.42;;
17369;SDS011;8802;52.402;4.920;2022-10-16T03:51:10;2.25;;;1.50;;
17369;SDS011;8802;52.402;4.920;2022-10-16T03:53:37;1.88;;;1.40;;
17369;SDS011;8802;52.402;4.920;2022-10-16T03:56:04;2.20;;;1.30;;
17369;SDS011;8802;52.402;4.920;2022-10-16T03:58:31;1.63;;;1.20;;
17369;SDS011;8802;52.402;4.920;2022-10-16T04:00:58;3.60;;;1.38;;
17369;SDS011;8802;52.402;4.920;2022-10-16T04:03:24;3.90;;;1.60;;
17369;SDS011;8802;52.402;4.920;2022-10-16T04:05:51;4.45;;;2.00;;
17369;SDS011;8802;52.402;4.920;2022-10-16T04:08:19;3.28;;;1.50;;
17369;SDS011;8802;52.402;4.920;2022-10-16T04:10:46;2.72;;;1.65;;
17369;SDS011;8802;52.402;4.920;2022-10-16T04:13:13;2.33;;;1.58;;
17369;SDS011;8802;52.402;4.920;2022-10-16T04:15:40;2.72;;;1.30;;
17369;SDS011;8802;52.402;4.920;2022-10-16T04:18:07;2.63;;;1.45;;
17369;SDS011;8802;52.402;4.920;2022-10-16T04:20:34;2.45;;;1.40;;
17369;SDS011;8802;52.402;4.920;2022-10-16T04:23:01;1.83;;;1.40;;
17369;SDS011;8802;52.402;4.920;2022-10-16T04:25:29;2.70;;;1.30;;
17369;SDS011;8802;52.402;4.920;2022-10-16T04:27:56;2.42;;;1.35;;
17369;SDS011;8802;52.402;4.920;2022-10-16T04:30:23;3.13;;;1.30;;
17369;SDS011;8802;52.402;4.920;2022-10-16T04:32:50;3.58;;;1.45;;
17369;SDS011;8802;52.402;4.920;2022-10-16T04:35:17;2.65;;;1.33;;
17369;SDS011;8802;52.402;4.920;2022-10-16T04:37:45;2.80;;;1.17;;
17369;SDS011;8802;52.402;4.920;2022-10-16T04:40:12;1.95;;;1.10;;
17369;SDS011;8802;52.402;4.920;2022-10-16T04:42:41;3.60;;;1.38;;
17369;SDS011;8802;52.402;4.920;2022-10-16T04:45:08;2.95;;;1.20;;
17369;SDS011;8802;52.402;4.920;2022-10-16T04:47:35;3.22;;;1.15;;
17369;SDS011;8802;52.402;4.920;2022-10-16T04:50:02;4.22;;;1.20;;
17369;SDS011;8802;52.402;4.920;2022-10-16T04:52:30;2.58;;;0.95;;
17369;SDS011;8802;52.402;4.920;2022-10-16T04:54:57;3.05;;;1.20;;
17369;SDS011;8802;52.402;4.920;2022-10-16T04:57:26;3.78;;;1.20;;
17369;SDS011;8802;52.402;4.920;2022-10-16T04:59:55;4.97;;;1.50;;
17369;SDS011;8802;52.402;4.920;2022-10-16T05:02:22;2.63;;;1.20;;
17369;SDS011;8802;52.402;4.920;2022-10-16T05:04:49;4.65;;;1.27;;
17369;SDS011;8802;52.402;4.920;2022-10-16T05:07:15;4.85;;;1.13;;
17369;SDS011;8802;52.402;4.920;2022-10-16T05:09:42;3.92;;;1.33;;
17369;SDS011;8802;52.402;4.920;2022-10-16T05:12:09;2.72;;;1.63;;
17369;SDS011;8802;52.402;4.920;2022-10-16T05:14:36;3.50;;;1.27;;
17369;SDS011;8802;52.402;4.920;2022-10-16T05:17:04;2.78;;;1.27;;
17369;SDS011;8802;52.402;4.920;2022-10-16T05:19:31;2.45;;;1.25;;
17369;SDS011;8802;52.402;4.920;2022-10-16T05:21:58;2.67;;;1.30;;
17369;SDS011;8802;52.402;4.920;2022-10-16T05:24:24;2.83;;;1.00;;
17369;SDS011;8802;52.402;4.920;2022-10-16T05:26:51;2.25;;;1.00;;
17369;SDS011;8802;52.402;4.920;2022-10-16T05:29:18;3.50;;;1.30;;
17369;SDS011;8802;52.402;4.920;2022-10-16T05:31:45;2.60;;;1.20;;
17369;SDS011;8802;52.402;4.920;2022-10-16T05:34:13;4.70;;;1.30;;
17369;SDS011;8802;52.402;4.920;2022-10-16T05:36:40;3.65;;;1.33;;
17369;SDS011;8802;52.402;4.920;2022-10-16T05:39:07;4.65;;;1.33;;
17369;SDS011;8802;52.402;4.920;2022-10-16T05:41:34;2.65;;;1.33;;
17369;SDS011;8802;52.402;4.920;2022-10-16T05:44:03;1.80;;;1.27;;
17369;SDS011;8802;52.402;4.920;2022-10-16T05:46:31;3.03;;;1.30;;
17369;SDS011;8802;52.402;4.920;2022-10-16T05:48:58;3.50;;;1.60;;
17369;SDS011;8802;52.402;4.920;2022-10-16T05:51:26;3.00;;;1.38;;
17369;SDS011;8802;52.402;4.920;2022-10-16T05:53:53;1.77;;;1.13;;
17369;SDS011;8802;52.402;4.920;2022-10-16T05:56:19;3.22;;;1.27;;
17369;SDS011;8802;52.402;4.920;2022-10-16T05:58:46;2.53;;;1.20;;
17369;SDS011;8802;52.402;4.920;2022-10-16T06:01:13;3.83;;;1.30;;
17369;SDS011;8802;52.402;4.920;2022-10-16T06:03:41;2.58;;;1.45;;
17369;SDS011;8802;52.402;4.920;2022-10-16T06:06:09;3.80;;;1.50;;
17369;SDS011;8802;52.402;4.920;2022-10-16T06:08:39;2.70;;;1.38;;
17369;SDS011;8802;52.402;4.920;2022-10-16T06:11:07;3.78;;;1.70;;
17369;SDS011;8802;52.402;4.920;2022-10-16T06:13:35;2.03;;;1.27;;
17369;SDS011;8802;52.402;4.920;2022-10-16T06:16:02;2.63;;;1.48;;
17369;SDS011;8802;52.402;4.920;2022-10-16T06:18:30;3.45;;;1.27;;
17369;SDS011;8802;52.402;4.920;2022-10-16T06:20:57;3.45;;;1.40;;
17369;SDS011;8802;52.402;4.920;2022-10-16T06:23:24;3.05;;;1.20;;
17369;SDS011;8802;52.402;4.920;2022-10-16T06:25:53;2.97;;;1.20;;
17369;SDS011;8802;52.402;4.920;2022-10-16T06:28:20;2.90;;;1.25;;
17369;SDS011;8802;52.402;4.920;2022-10-16T06:30:47;1.52;;;0.80;;
17369;SDS011;8802;52.402;4.920;2022-10-16T06:33:13;2.95;;;1.23;;
17369;SDS011;8802;52.402;4.920;2022-10-16T06:35:40;4.43;;;1.10;;
17369;SDS011;8802;52.402;4.920;2022-10-16T06:38:07;3.97;;;1.33;;
17369;SDS011;8802;52.402;4.920;2022-10-16T06:40:34;4.35;;;1.60;;
17369;SDS011;8802;52.402;4.920;2022-10-16T06:43:02;5.43;;;1.60;;
17369;SDS011;8802;52.402;4.920;2022-10-16T06:45:29;4.13;;;1.40;;
17369;SDS011;8802;52.402;4.920;2022-10-16T06:47:55;2.58;;;1.48;;
17369;SDS011;8802;52.402;4.920;2022-10-16T06:50:22;2.80;;;1.25;;
17369;SDS011;8802;52.402;4.920;2022-10-16T06:52:49;2.85;;;1.50;;
17369;SDS011;8802;52.402;4.920;2022-10-16T06:55:16;4.85;;;1.40;;
17369;SDS011;8802;52.402;4.920;2022-10-16T06:57:43;2.78;;;1.27;;
17369;SDS011;8802;52.402;4.920;2022-10-16T07:00:11;2.88;;;1.50;;
17369;SDS011;8802;52.402;4.920;2022-10-16T07:02:38;4.38;;;1.73;;
17369;SDS011;8802;52.402;4.920;2022-10-16T07:05:05;1.75;;;1.10;;
17369;SDS011;8802;52.402;4.920;2022-10-16T07:07:33;3.25;;;1.35;;
17369;SDS011;8802;52.402;4.920;2022-10-16T07:09:59;3.75;;;1.48;;
17369;SDS011;8802;52.402;4.920;2022-10-16T07:12:26;4.35;;;1.17;;
17369;SDS011;8802;52.402;4.920;2022-10-16T07:14:53;3.60;;;1.30;;
17369;SDS011;8802;52.402;4.920;2022-10-16T07:17:22;3.92;;;1.90;;
17369;SDS011;8802;52.402;4.920;2022-10-16T07:19:49;4.18;;;1.20;;
17369;SDS011;8802;52.402;4.920;2022-10-16T07:22:18;3.00;;;1.52;;
17369;SDS011;8802;52.402;4.920;2022-10-16T07:24:45;5.28;;;1.50;;
17369;SDS011;8802;52.402;4.920;2022-10-16T07:27:11;3.15;;;1.25;;
17369;SDS011;8802;52.402;4.920;2022-10-16T07:29:38;2.60;;;1.15;;
17369;SDS011;8802;52.402;4.920;2022-10-16T07:32:05;3.28;;;1.67;;
17369;SDS011;8802;52.402;4.920;2022-10-16T07:34:33;3.75;;;1.20;;
17369;SDS011;8802;52.402;4.920;2022-10-16T07:37:00;3.85;;;1.60;;
17369;SDS011;8802;52.402;4.920;2022-10-16T07:39:27;2.20;;;0.95;;
17369;SDS011;8802;52.402;4.920;2022-10-16T07:41:54;6.43;;;1.80;;
17369;SDS011;8802;52.402;4.920;2022-10-16T07:44:21;3.55;;;1.15;;
17369;SDS011;8802;52.402;4.920;2022-10-16T07:46:47;3.13;;;1.23;;
17369;SDS011;8802;52.402;4.920;2022-10-16T07:49:14;4.22;;;1.67;;
17369;SDS011;8802;52.402;4.920;2022-10-16T07:51:42;3.58;;;1.15;;
17369;SDS011;8802;52.402;4.920;2022-10-16T07:54:09;5.68;;;1.42;;
17369;SDS011;8802;52.402;4.920;2022-10-16T07:56:36;3.83;;;1.20;;
17369;SDS011;8802;52.402;4.920;2022-10-16T07:59:03;3.08;;;1.00;;
17369;SDS011;8802;52.402;4.920;2022-10-16T08:01:30;3.80;;;1.00;;
17369;SDS011;8802;52.402;4.920;2022-10-16T08:03:57;5.70;;;2.05;;
17369;SDS011;8802;52.402;4.920;2022-10-16T08:06:23;2.45;;;1.10;;
17369;SDS011;8802;52.402;4.920;2022-10-16T08:08:52;4.20;;;1.13;;
17369;SDS011;8802;52.402;4.920;2022-10-16T08:11:19;4.63;;;1.30;;
17369;SDS011;8802;52.402;4.920;2022-10-16T08:13:46;5.15;;;1.20;;
17369;SDS011;8802;52.402;4.920;2022-10-16T08:16:13;2.92;;;1.02;;
17369;SDS011;8802;52.402;4.920;2022-10-16T08:18:40;5.32;;;1.50;;
17369;SDS011;8802;52.402;4.920;2022-10-16T08:21:15;4.03;;;1.15;;
17369;SDS011;8802;52.402;4.920;2022-10-16T08:23:42;5.20;;;1.58;;
17369;SDS011;8802;52.402;4.920;2022-10-16T08:26:11;6.50;;;1.42;;
17369;SDS011;8802;52.402;4.920;2022-10-16T08:28:38;4.20;;;1.73;;
17369;SDS011;8802;52.402;4.920;2022-10-16T08:31:06;5.55;;;1.70;;
17369;SDS011;8802;52.402;4.920;2022-10-16T08:33:34;5.47;;;1.80;;
17369;SDS011;8802;52.402;4.920;2022-10-16T08:36:02;5.13;;;1.55;;
17369;SDS011;8802;52.402;4.920;2022-10-16T08:38:29;2.78;;;1.35;;
17369;SDS011;8802;52.402;4.920;2022-10-16T08:40:57;5.72;;;1.90;;
17369;SDS011;8802;52.402;4.920;2022-10-16T08:43:41;6.35;;;1.65;;
17369;SDS011;8802;52.402;4.920;2022-10-16T08:46:43;5.72;;;1.55;;
17369;SDS011;8802;52.402;4.920;2022-10-16T08:49:16;5.00;;;1.80;;
17369;SDS011;8802;52.402;4.920;2022-10-16T08:51:43;5.53;;;1.60;;
17369;SDS011;8802;52.402;4.920;2022-10-16T08:54:15;6.72;;;1.52;;
17369;SDS011;8802;52.402;4.920;2022-10-16T08:56:49;5.43;;;1.60;;
17369;SDS011;8802;52.402;4.920;2022-10-16T08:59:17;7.28;;;1.58;;
17369;SDS011;8802;52.402;4.920;2022-10-16T09:01:45;8.43;;;2.03;;
17369;SDS011;8802;52.402;4.920;2022-10-16T09:04:34;6.85;;;1.83;;
17369;SDS011;8802;52.402;4.920;2022-10-16T09:07:13;5.55;;;1.65;;
17369;SDS011;8802;52.402;4.920;2022-10-16T09:12:38;3.80;;;1.45;;
17369;SDS011;8802;52.402;4.920;2022-10-16T09:15:16;4.97;;;1.48;;
17369;SDS011;8802;52.402;4.920;2022-10-16T09:17:52;6.05;;;1.40;;
17369;SDS011;8802;52.402;4.920;2022-10-16T09:20:34;5.50;;;1.50;;
17369;SDS011;8802;52.402;4.920;2022-10-16T09:23:12;6.70;;;1.67;;
17369;SDS011;8802;52.402;4.920;2022-10-16T09:25:43;8.00;;;1.73;;
17369;SDS011;8802;52.402;4.920;2022-10-16T09:28:12;11.43;;;1.63;;
17369;SDS011;8802;52.402;4.920;2022-10-16T09:30:41;6.47;;;1.52;;
17369;SDS011;8802;52.402;4.920;2022-10-16T09:33:08;6.75;;;1.73;;
17369;SDS011;8802;52.402;4.920;2022-10-16T09:35:37;7.35;;;1.73;;
17369;SDS011;8802;52.402;4.920;2022-10-16T09:38:06;7.22;;;1.90;;
17369;SDS011;8802;52.402;4.920;2022-10-16T09:40:34;11.43;;;2.10;;
17369;SDS011;8802;52.402;4.920;2022-10-16T09:43:05;8.60;;;1.67;;
17369;SDS011;8802;52.402;4.920;2022-10-16T09:45:54;7.78;;;1.63;;
17369;SDS011;8802;52.402;4.920;2022-10-16T09:48:22;10.13;;;2.05;;
17369;SDS011;8802;52.402;4.920;2022-10-16T09:50:55;8.88;;;1.85;;
17369;SDS011;8802;52.402;4.920;2022-10-16T09:53:23;9.55;;;2.20;;
17369;SDS011;8802;52.402;4.920;2022-10-16T09:55:52;7.80;;;1.88;;
17369;SDS011;8802;52.402;4.920;2022-10-16T09:58:21;9.75;;;1.90;;
17369;SDS011;8802;52.402;4.920;2022-10-16T10:00:49;6.90;;;1.80;;
17369;SDS011;8802;52.402;4.920;2022-10-16T10:03:34;10.27;;;2.08;;
17369;SDS011;8802;52.402;4.920;2022-10-16T10:06:05;11.20;;;1.77;;
17369;SDS011;8802;52.402;4.920;2022-10-16T10:08:52;8.77;;;1.83;;
17369;SDS011;8802;52.402;4.920;2022-10-16T10:14:06;8.18;;;1.92;;
17369;SDS011;8802;52.402;4.920;2022-10-16T10:16:39;11.63;;;2.00;;
17369;SDS011;8802;52.402;4.920;2022-10-16T10:19:09;11.07;;;2.00;;
17369;SDS011;8802;52.402;4.920;2022-10-16T10:21:40;9.35;;;2.00;;
17369;SDS011;8802;52.402;4.920;2022-10-16T10:24:09;9.57;;;2.40;;
17369;SDS011;8802;52.402;4.920;2022-10-16T10:26:37;8.85;;;1.73;;
17369;SDS011;8802;52.402;4.920;2022-10-16T10:29:09;10.93;;;1.80;;
17369;SDS011;8802;52.402;4.920;2022-10-16T10:31:44;7.95;;;1.63;;
17369;SDS011;8802;52.402;4.920;2022-10-16T10:34:32;7.93;;;1.52;;
17369;SDS011;8802;52.402;4.920;2022-10-16T10:37:11;5.15;;;1.60;;
17369;SDS011;8802;52.402;4.920;2022-10-16T10:39:50;11.57;;;2.30;;
17369;SDS011;8802;52.402;4.920;2022-10-16T10:42:27;12.18;;;1.98;;
17369;SDS011;8802;52.402;4.920;2022-10-16T10:47:55;9.48;;;1.63;;
17369;SDS011;8802;52.402;4.920;2022-10-16T10:50:33;8.52;;;1.90;;
17369;SDS011;8802;52.402;4.920;2022-10-16T10:53:07;6.88;;;1.63;;
17369;SDS011;8802;52.402;4.920;2022-10-16T10:55:44;9.40;;;1.60;;
17369;SDS011;8802;52.402;4.920;2022-10-16T10:58:24;9.35;;;1.70;;
17369;SDS011;8802;52.402;4.920;2022-10-16T11:01:13;9.73;;;2.17;;
17369;SDS011;8802;52.402;4.920;2022-10-16T11:03:46;7.18;;;1.88;;
17369;SDS011;8802;52.402;4.920;2022-10-16T11:06:32;10.63;;;2.05;;
17369;SDS011;8802;52.402;4.920;2022-10-16T11:09:03;9.13;;;2.00;;
17369;SDS011;8802;52.402;4.920;2022-10-16T11:11:38;7.85;;;1.55;;
17369;SDS011;8802;52.402;4.920;2022-10-16T11:14:11;7.53;;;1.45;;
17369;SDS011;8802;52.402;4.920;2022-10-16T11:16:45;10.73;;;1.65;;
17369;SDS011;8802;52.402;4.920;2022-10-16T11:19:19;7.32;;;1.70;;
17369;SDS011;8802;52.402;4.920;2022-10-16T11:21:55;5.32;;;1.35;;
17369;SDS011;8802;52.402;4.920;2022-10-16T11:24:30;10.18;;;1.92;;
17369;SDS011;8802;52.402;4.920;2022-10-16T11:27:05;5.70;;;1.67;;
17369;SDS011;8802;52.402;4.920;2022-10-16T11:29:35;10.50;;;2.03;;
17369;SDS011;8802;52.402;4.920;2022-10-16T11:32:14;7.80;;;1.83;;
17369;SDS011;8802;52.402;4.920;2022-10-16T11:34:47;11.07;;;1.85;;
17369;SDS011;8802;52.402;4.920;2022-10-16T11:37:19;5.43;;;1.17;;
17369;SDS011;8802;52.402;4.920;2022-10-16T11:39:49;10.45;;;1.92;;
17369;SDS011;8802;52.402;4.920;2022-10-16T11:42:19;9.60;;;2.00;;
17369;SDS011;8802;52.402;4.920;2022-10-16T11:44:53;10.43;;;1.70;;
17369;SDS011;8802;52.402;4.920;2022-10-16T11:47:27;9.23;;;2.35;;
17369;SDS011;8802;52.402;4.920;2022-10-16T11:50:01;4.60;;;1.30;;
17369;SDS011;8802;52.402;4.920;2022-10-16T11:52:33;6.05;;;1.38;;
17369;SDS011;8802;52.402;4.920;2022-10-16T11:55:05;7.95;;;1.60;;
17369;SDS011;8802;52.402;4.920;2022-10-16T11:57:42;5.93;;;1.52;;
17369;SDS011;8802;52.402;4.920;2022-10-16T12:00:14;10.73;;;1.80;;
17369;SDS011;8802;52.402;4.920;2022-10-16T12:02:50;7.07;;;1.67;;
17369;SDS011;8802;52.402;4.920;2022-10-16T12:05:25;7.40;;;1.52;;
17369;SDS011;8802;52.402;4.920;2022-10-16T12:08:04;6.30;;;1.60;;
17369;SDS011;8802;52.402;4.920;2022-10-16T12:10:36;9.27;;;1.90;;
17369;SDS011;8802;52.402;4.920;2022-10-16T12:13:03;9.77;;;1.50;;
17369;SDS011;8802;52.402;4.920;2022-10-16T12:15:31;7.38;;;1.67;;
17369;SDS011;8802;52.402;4.920;2022-10-16T12:17:59;5.28;;;1.10;;
17369;SDS011;8802;52.402;4.920;2022-10-16T12:20:27;7.43;;;1.35;;
17369;SDS011;8802;52.402;4.920;2022-10-16T12:23:03;8.15;;;1.50;;
17369;SDS011;8802;52.402;4.920;2022-10-16T12:25:31;8.15;;;1.80;;
17369;SDS011;8802;52.402;4.920;2022-10-16T12:28:00;6.75;;;1.73;;
17369;SDS011;8802;52.402;4.920;2022-10-16T12:30:30;7.22;;;1.30;;
17369;SDS011;8802;52.402;4.920;2022-10-16T12:33:00;10.80;;;1.00;;
17369;SDS011;8802;52.402;4.920;2022-10-16T12:35:30;4.38;;;1.40;;
17369;SDS011;8802;52.402;4.920;2022-10-16T12:38:07;8.52;;;1.38;;
17369;SDS011;8802;52.402;4.920;2022-10-16T12:40:41;5.70;;;1.25;;
17369;SDS011;8802;52.402;4.920;2022-10-16T12:43:11;5.25;;;0.98;;
17369;SDS011;8802;52.402;4.920;2022-10-16T12:45:58;5.40;;;1.15;;
17369;SDS011;8802;52.402;4.920;2022-10-16T12:48:26;5.20;;;1.33;;
17369;SDS011;8802;52.402;4.920;2022-10-16T12:50:53;6.65;;;1.58;;
17369;SDS011;8802;52.402;4.920;2022-10-16T12:53:22;4.93;;;1.10;;
17369;SDS011;8802;52.402;4.920;2022-10-16T12:55:53;4.93;;;1.02;;
17369;SDS011;8802;52.402;4.920;2022-10-16T12:58:39;7.30;;;1.50;;
17369;SDS011;8802;52.402;4.920;2022-10-16T13:01:19;12.23;;;1.17;;
17369;SDS011;8802;52.402;4.920;2022-10-16T13:04:10;5.60;;;1.65;;
17369;SDS011;8802;52.402;4.920;2022-10-16T13:06:49;5.55;;;1.17;;
17369;SDS011;8802;52.402;4.920;2022-10-16T13:09:27;6.90;;;1.38;;
17369;SDS011;8802;52.402;4.920;2022-10-16T13:12:12;5.85;;;1.33;;
17369;SDS011;8802;52.402;4.920;2022-10-16T13:14:49;6.45;;;1.15;;
17369;SDS011;8802;52.402;4.920;2022-10-16T13:17:28;5.00;;;1.20;;
17369;SDS011;8802;52.402;4.920;2022-10-16T13:20:06;5.85;;;1.25;;
17369;SDS011;8802;52.402;4.920;2022-10-16T13:22:45;5.05;;;1.17;;
17369;SDS011;8802;52.402;4.920;2022-10-16T13:25:26;3.92;;;0.85;;
17369;SDS011;8802;52.402;4.920;2022-10-16T13:28:03;4.88;;;1.20;;
17369;SDS011;8802;52.402;4.920;2022-10-16T13:30:32;6.30;;;1.02;;
17369;SDS011;8802;52.402;4.920;2022-10-16T13:33:04;6.22;;;1.23;;
17369;SDS011;8802;52.402;4.920;2022-10-16T13:35:46;7.68;;;1.58;;
17369;SDS011;8802;52.402;4.920;2022-10-16T13:38:15;5.43;;;1.17;;
17369;SDS011;8802;52.402;4.920;2022-10-16T13:40:52;4.78;;;1.10;;
17369;SDS011;8802;52.402;4.920;2022-10-16T13:43:22;9.32;;;1.27;;
17369;SDS011;8802;52.402;4.920;2022-10-16T13:45:52;4.30;;;1.00;;
17369;SDS011;8802;52.402;4.920;2022-10-16T13:48:23;2.67;;;0.95;;
17369;SDS011;8802;52.402;4.920;2022-10-16T13:51:03;4.22;;;1.13;;
17369;SDS011;8802;52.402;4.920;2022-10-16T13:53:32;5.80;;;0.95;;
17369;SDS011;8802;52.402;4.920;2022-10-16T13:56:03;6.63;;;1.05;;
17369;SDS011;8802;52.402;4.920;2022-10-16T13:58:31;6.90;;;1.40;;
17369;SDS011;8802;52.402;4.920;2022-10-16T14:00:59;3.83;;;1.02;;
17369;SDS011;8802;52.402;4.920;2022-10-16T14:03:30;4.57;;;1.50;;
17369;SDS011;8802;52.402;4.920;2022-10-16T14:05:58;3.97;;;1.20;;
17369;SDS011;8802;52.402;4.920;2022-10-16T14:08:27;5.05;;;1.17;;
17369;SDS011;8802;52.402;4.920;2022-10-16T14:10:55;4.82;;;1.23;;
17369;SDS011;8802;52.402;4.920;2022-10-16T14:13:29;5.72;;;1.17;;
17369;SDS011;8802;52.402;4.920;2022-10-16T14:16:02;4.50;;;0.90;;
17369;SDS011;8802;52.402;4.920;2022-10-16T14:18:32;5.95;;;1.10;;
17369;SDS011;8802;52.402;4.920;2022-10-16T14:21:03;4.78;;;1.85;;
17369;SDS011;8802;52.402;4.920;2022-10-16T14:23:32;4.68;;;1.20;;
17369;SDS011;8802;52.402;4.920;2022-10-16T14:26:06;6.57;;;1.30;;
17369;SDS011;8802;52.402;4.920;2022-10-16T14:28:45;6.55;;;1.75;;
17369;SDS011;8802;52.402;4.920;2022-10-16T14:31:24;5.50;;;1.55;;
17369;SDS011;8802;52.402;4.920;2022-10-16T14:33:55;7.80;;;1.30;;
17369;SDS011;8802;52.402;4.920;2022-10-16T14:36:23;5.70;;;1.20;;
17369;SDS011;8802;52.402;4.920;2022-10-16T14:38:54;7.88;;;1.50;;
17369;SDS011;8802;52.402;4.920;2022-10-16T14:41:27;5.50;;;1.40;;
17369;SDS011;8802;52.402;4.920;2022-10-16T14:43:57;8.68;;;1.33;;
17369;SDS011;8802;52.402;4.920;2022-10-16T14:46:29;4.13;;;1.20;;
17369;SDS011;8802;52.402;4.920;2022-10-16T14:49:00;4.82;;;1.50;;
17369;SDS011;8802;52.402;4.920;2022-10-16T14:51:29;5.68;;;1.45;;
17369;SDS011;8802;52.402;4.920;2022-10-16T14:53:56;4.18;;;1.10;;
17369;SDS011;8802;52.402;4.920;2022-10-16T14:56:24;7.05;;;1.80;;
17369;SDS011;8802;52.402;4.920;2022-10-16T14:58:55;5.60;;;1.35;;
17369;SDS011;8802;52.402;4.920;2022-10-16T15:01:23;4.50;;;1.33;;
17369;SDS011;8802;52.402;4.920;2022-10-16T15:03:50;7.97;;;1.98;;
17369;SDS011;8802;52.402;4.920;2022-10-16T15:06:19;7.43;;;1.65;;
17369;SDS011;8802;52.402;4.920;2022-10-16T15:08:47;9.30;;;1.95;;
17369;SDS011;8802;52.402;4.920;2022-10-16T15:11:14;7.03;;;1.73;;
17369;SDS011;8802;52.402;4.920;2022-10-16T15:13:43;6.50;;;1.98;;
17369;SDS011;8802;52.402;4.920;2022-10-16T15:16:10;5.68;;;1.50;;
17369;SDS011;8802;52.402;4.920;2022-10-16T15:18:40;7.65;;;2.03;;
17369;SDS011;8802;52.402;4.920;2022-10-16T15:21:07;6.20;;;1.40;;
17369;SDS011;8802;52.402;4.920;2022-10-16T15:23:34;6.60;;;1.60;;
17369;SDS011;8802;52.402;4.920;2022-10-16T15:26:01;6.03;;;1.50;;
17369;SDS011;8802;52.402;4.920;2022-10-16T15:28:27;4.63;;;1.35;;